Terminal Aerodrome Forecast
Issued by NWS

Home | Current Version | Previous Version | Text Only | Print | Product List | Glossary On
Versions: 1 2 3 4 5 6 7 8 9 10 11 12 13 14 15 16
335
FTPA31 PHFO 231433 AAA
TAFSTU
TAF AMD
NSTU 231433Z 2315/2412 11010KT P6SM VCSH SCT014 BKN040 BKN100
      TEMPO 2315/2318 -SHRA SCT005 BKN014 BKN035=

USA.gov is the U.S. government's official web portal to all federal, state and local government web resources and services.